createdAt,value
2016-05-16T00:00:53.881Z,1012.71
2016-05-16T00:01:53.931Z,1012.7
2016-05-16T00:02:53.981Z,1012.72
2016-05-16T00:03:54.029Z,1012.72
2016-05-16T00:04:54.204Z,1012.75
2016-05-16T00:05:54.128Z,1012.73
2016-05-16T00:06:54.179Z,1012.7
2016-05-16T00:07:54.228Z,1012.7
2016-05-16T00:08:54.278Z,1012.72
2016-05-16T00:09:54.327Z,1012.72
2016-05-16T00:10:54.392Z,1012.72
2016-05-16T00:11:54.457Z,1012.7
2016-05-16T00:12:54.491Z,1012.74
2016-05-16T00:13:54.542Z,1012.73
2016-05-16T00:14:54.591Z,1012.73
2016-05-16T00:15:54.641Z,1012.7
2016-05-16T00:16:54.689Z,1012.7
2016-05-16T00:17:54.724Z,1012.73
2016-05-16T00:18:54.788Z,1012.72
2016-05-16T00:19:54.838Z,1012.72
2016-05-16T00:20:54.888Z,1012.72
2016-05-16T00:21:54.922Z,1012.74
2016-05-16T00:22:54.987Z,1012.72
2016-05-16T00:23:55.037Z,1012.73
2016-05-16T00:24:55.086Z,1012.75
2016-05-16T00:25:55.136Z,1012.77
2016-05-16T00:26:55.185Z,1012.74
2016-05-16T00:27:55.235Z,1012.73
2016-05-16T00:28:55.285Z,1012.76
2016-05-16T00:29:55.334Z,1012.78
2016-05-16T00:30:55.384Z,1012.77
2016-05-16T00:31:55.433Z,1012.74
2016-05-16T00:32:55.483Z,1012.72
2016-05-16T00:33:55.532Z,1012.74
2016-05-16T00:34:55.582Z,1012.74
2016-05-16T00:35:55.631Z,1012.69
2016-05-16T00:36:55.681Z,1012.73
2016-05-16T00:37:55.731Z,1012.74
2016-05-16T00:38:55.780Z,1012.74
2016-05-16T00:39:55.830Z,1012.75
2016-05-16T00:40:55.879Z,1012.74
2016-05-16T00:41:55.929Z,1012.75
2016-05-16T00:42:55.978Z,1012.74
2016-05-16T00:43:56.028Z,1012.72
2016-05-16T00:44:56.077Z,1012.78
2016-05-16T00:45:56.127Z,1012.78
2016-05-16T00:46:56.177Z,1012.72
2016-05-16T00:47:56.227Z,1012.76
2016-05-16T00:48:56.275Z,1012.73
2016-05-16T00:49:56.325Z,1012.73
2016-05-16T00:50:56.375Z,1012.71
2016-05-16T00:51:56.424Z,1012.7
2016-05-16T00:52:56.474Z,1012.76
2016-05-16T00:53:56.524Z,1012.72
2016-05-16T00:54:56.574Z,1012.67
2016-05-16T00:55:56.623Z,1012.65
2016-05-16T00:56:56.672Z,1012.65
2016-05-16T00:57:56.738Z,1012.61
2016-05-16T00:58:56.772Z,1012.64
2016-05-16T00:59:56.820Z,1012.6
2016-05-16T01:00:56.886Z,1012.61
2016-05-16T01:01:56.935Z,1012.63
2016-05-16T01:02:56.985Z,1012.63
2016-05-16T01:03:57.035Z,1012.6
2016-05-16T01:04:57.084Z,1012.61
2016-05-16T01:05:57.134Z,1012.59
2016-05-16T01:06:57.183Z,1012.6
2016-05-16T01:07:57.234Z,1012.6
2016-05-16T01:08:57.283Z,1012.59
2016-05-16T01:09:57.332Z,1012.56
2016-05-16T01:10:57.382Z,1012.56
2016-05-16T01:11:57.431Z,1012.6
2016-05-16T01:12:57.481Z,1012.59
2016-05-16T01:13:57.531Z,1012.6
2016-05-16T01:14:57.565Z,1012.61
2016-05-16T01:15:57.630Z,1012.55
2016-05-16T01:16:57.679Z,1012.6
2016-05-16T01:17:57.728Z,1012.63
2016-05-16T01:18:57.778Z,1012.62
2016-05-16T01:19:58.141Z,1012.6
2016-05-16T01:20:57.878Z,1012.65
2016-05-16T01:21:57.927Z,1012.66
2016-05-16T01:22:57.976Z,1012.62
2016-05-16T01:23:58.027Z,1012.6
2016-05-16T01:24:58.077Z,1012.63
2016-05-16T01:25:58.125Z,1012.58
2016-05-16T01:26:58.174Z,1012.6
2016-05-16T01:27:58.225Z,1012.61
2016-05-16T01:28:58.273Z,1012.6
2016-05-16T01:29:58.324Z,1012.61
2016-05-16T01:30:58.373Z,1012.59
2016-05-16T01:31:58.423Z,1012.61
2016-05-16T01:32:58.473Z,1012.58
2016-05-16T01:33:58.522Z,1012.55
2016-05-16T01:34:58.696Z,1012.53
2016-05-16T01:35:58.620Z,1012.61
2016-05-16T01:36:58.670Z,1012.6
2016-05-16T01:37:58.721Z,1012.57
2016-05-16T01:38:58.770Z,1012.58
2016-05-16T01:39:58.819Z,1012.55
2016-05-16T01:40:58.885Z,1012.6
2016-05-16T01:41:58.918Z,1012.57
2016-05-16T01:42:58.983Z,1012.55
2016-05-16T01:43:59.034Z,1012.58
2016-05-16T01:44:59.067Z,1012.53
2016-05-16T01:45:59.116Z,1012.53
2016-05-16T01:46:59.182Z,1012.54
2016-05-16T01:47:59.216Z,1012.56
2016-05-16T01:48:59.265Z,1012.54
2016-05-16T01:49:59.644Z,1012.58
2016-05-16T01:50:59.364Z,1012.58
2016-05-16T01:51:59.444Z,1012.58
2016-05-16T01:52:59.551Z,1012.54
2016-05-16T01:53:59.641Z,1012.58
2016-05-16T01:54:59.714Z,1012.57
2016-05-16T01:55:59.820Z,1012.56
2016-05-16T01:56:59.890Z,1012.6
2016-05-16T01:57:59.954Z,1012.54
2016-05-16T01:59:00.019Z,1012.62
2016-05-16T02:00:00.083Z,1012.61
2016-05-16T02:01:00.147Z,1012.61
2016-05-16T02:02:00.204Z,1012.6
2016-05-16T02:03:00.259Z,1012.59
2016-05-16T02:04:00.314Z,1012.58
2016-05-16T02:05:00.416Z,1012.55
2016-05-16T02:06:00.408Z,1012.61
2016-05-16T02:07:00.460Z,1012.57
2016-05-16T02:08:00.528Z,1012.55
2016-05-16T02:09:00.579Z,1012.55
2016-05-16T02:10:00.631Z,1012.58
2016-05-16T02:11:00.682Z,1012.6
2016-05-16T02:12:00.733Z,1012.6
2016-05-16T02:13:00.783Z,1012.58
2016-05-16T02:14:00.833Z,1012.62
2016-05-16T02:15:00.884Z,1012.55
2016-05-16T02:16:00.934Z,1012.54
2016-05-16T02:17:00.984Z,1012.53
2016-05-16T02:18:01.033Z,1012.55
2016-05-16T02:19:01.083Z,1012.52
2016-05-16T02:20:01.132Z,1012.53
2016-05-16T02:21:01.181Z,1012.51
2016-05-16T02:22:01.232Z,1012.52
2016-05-16T02:23:01.281Z,1012.5
2016-05-16T02:24:01.330Z,1012.49
2016-05-16T02:25:01.381Z,1012.49
2016-05-16T02:26:01.430Z,1012.46
2016-05-16T02:27:01.479Z,1012.45
2016-05-16T02:28:01.528Z,1012.48
2016-05-16T02:29:01.578Z,1012.49
2016-05-16T02:30:01.628Z,1012.5
2016-05-16T02:31:01.678Z,1012.45
2016-05-16T02:32:01.742Z,1012.49
2016-05-16T02:33:01.777Z,1012.43
2016-05-16T02:34:01.841Z,1012.46
2016-05-16T02:35:02.408Z,1012.48
2016-05-16T02:36:01.925Z,1012.48
2016-05-16T02:37:01.991Z,1012.52
2016-05-16T02:38:02.040Z,1012.47
2016-05-16T02:39:02.090Z,1012.49
2016-05-16T02:40:02.139Z,1012.51
2016-05-16T02:41:02.189Z,1012.42
2016-05-16T02:42:02.238Z,1012.47
2016-05-16T02:43:02.287Z,1012.44
2016-05-16T02:44:02.337Z,1012.44
2016-05-16T02:45:02.387Z,1012.43
2016-05-16T02:46:02.437Z,1012.45
2016-05-16T02:47:02.470Z,1012.47
2016-05-16T02:48:02.521Z,1012.46
2016-05-16T02:49:02.585Z,1012.5
2016-05-16T02:50:02.651Z,1012.48
2016-05-16T02:51:02.684Z,1012.46
2016-05-16T02:52:02.734Z,1012.47
2016-05-16T02:53:02.783Z,1012.44
2016-05-16T02:54:02.834Z,1012.42
2016-05-16T02:55:02.883Z,1012.44
2016-05-16T02:56:02.932Z,1012.44
2016-05-16T02:57:02.981Z,1012.4
2016-05-16T02:58:03.031Z,1012.43
2016-05-16T02:59:03.081Z,1012.39
2016-05-16T03:00:03.131Z,1012.36
2016-05-16T03:01:03.180Z,1012.38
2016-05-16T03:02:03.230Z,1012.4
2016-05-16T03:03:03.280Z,1012.37
2016-05-16T03:04:03.328Z,1012.38
2016-05-16T03:05:03.550Z,1012.37
2016-05-16T03:06:03.427Z,1012.4
2016-05-16T03:07:03.477Z,1012.39
2016-05-16T03:08:03.527Z,1012.4
2016-05-16T03:09:03.577Z,1012.41
2016-05-16T03:10:03.626Z,1012.4
2016-05-16T03:11:03.676Z,1012.39
2016-05-16T03:12:03.725Z,1012.38
2016-05-16T03:13:03.775Z,1012.42
2016-05-16T03:14:03.824Z,1012.39
2016-05-16T03:15:03.874Z,1012.37
2016-05-16T03:16:03.923Z,1012.39
2016-05-16T03:17:03.973Z,1012.36
2016-05-16T03:18:04.023Z,1012.38
2016-05-16T03:19:04.088Z,1012.39
2016-05-16T03:20:04.121Z,1012.38
2016-05-16T03:21:04.171Z,1012.39
2016-05-16T03:22:04.221Z,1012.4
2016-05-16T03:23:04.270Z,1012.4
2016-05-16T03:24:04.320Z,1012.43
2016-05-16T03:25:04.370Z,1012.38
2016-05-16T03:26:04.420Z,1012.45
2016-05-16T03:27:04.469Z,1012.44
2016-05-16T03:28:04.518Z,1012.4
2016-05-16T03:29:04.567Z,1012.43
2016-05-16T03:30:04.617Z,1012.46
2016-05-16T03:31:04.667Z,1012.44
2016-05-16T03:32:04.717Z,1012.44
2016-05-16T03:33:04.766Z,1012.44
2016-05-16T03:34:04.816Z,1012.42
2016-05-16T03:35:04.866Z,1012.44
2016-05-16T03:36:04.914Z,1012.46
2016-05-16T03:37:04.964Z,1012.45
2016-05-16T03:38:05.014Z,1012.45
2016-05-16T03:39:05.063Z,1012.46
2016-05-16T03:40:05.113Z,1012.46
2016-05-16T03:41:05.163Z,1012.43
2016-05-16T03:42:05.212Z,1012.46
2016-05-16T03:43:05.262Z,1012.4
2016-05-16T03:44:05.311Z,1012.47
2016-05-16T03:45:05.361Z,1012.44
2016-05-16T03:46:05.410Z,1012.43
2016-05-16T03:47:05.460Z,1012.43
2016-05-16T03:48:05.510Z,1012.45
2016-05-16T03:49:05.574Z,1012.42
2016-05-16T03:50:05.671Z,1012.41
2016-05-16T03:51:05.659Z,1012.45
2016-05-16T03:52:05.707Z,1012.41
2016-05-16T03:53:05.757Z,1012.4
2016-05-16T03:54:05.807Z,1012.39
2016-05-16T03:55:05.856Z,1012.4
2016-05-16T03:56:05.906Z,1012.4
2016-05-16T03:57:05.956Z,1012.41
2016-05-16T03:58:06.006Z,1012.43
2016-05-16T03:59:06.055Z,1012.48
2016-05-16T04:00:06.104Z,1012.43
2016-05-16T04:01:06.153Z,1012.46
2016-05-16T04:02:06.219Z,1012.46
2016-05-16T04:03:06.253Z,1012.45
2016-05-16T04:04:06.319Z,1012.46
2016-05-16T04:05:06.352Z,1012.43
2016-05-16T04:06:06.402Z,1012.44
2016-05-16T04:07:06.452Z,1012.44
2016-05-16T04:08:06.517Z,1012.47
2016-05-16T04:09:06.550Z,1012.46
2016-05-16T04:10:06.600Z,1012.46
2016-05-16T04:11:06.665Z,1012.45
2016-05-16T04:12:06.699Z,1012.45
2016-05-16T04:13:06.749Z,1012.5
2016-05-16T04:14:06.798Z,1012.48
2016-05-16T04:15:06.848Z,1012.5
2016-05-16T04:16:06.913Z,1012.45
2016-05-16T04:17:06.963Z,1012.41
2016-05-16T04:18:06.996Z,1012.43
2016-05-16T04:19:07.062Z,1012.49
2016-05-16T04:20:07.314Z,1012.49
2016-05-16T04:21:07.145Z,1012.46
2016-05-16T04:22:07.210Z,1012.43
2016-05-16T04:23:07.245Z,1012.46
2016-05-16T04:24:07.309Z,1012.47
2016-05-16T04:25:07.343Z,1012.46
2016-05-16T04:26:07.409Z,1012.49
2016-05-16T04:27:07.442Z,1012.47
2016-05-16T04:28:07.508Z,1012.48
2016-05-16T04:29:07.557Z,1012.48
2016-05-16T04:30:07.607Z,1012.52
2016-05-16T04:31:07.656Z,1012.52
2016-05-16T04:32:07.706Z,1012.46
2016-05-16T04:33:07.755Z,1012.49
2016-05-16T04:34:07.789Z,1012.49
2016-05-16T04:35:07.855Z,1012.5
2016-05-16T04:36:07.889Z,1012.48
2016-05-16T04:37:07.938Z,1012.49
2016-05-16T04:38:07.988Z,1012.48
2016-05-16T04:39:08.038Z,1012.49
2016-05-16T04:40:08.087Z,1012.46
2016-05-16T04:41:08.199Z,1012.51
2016-05-16T04:42:08.186Z,1012.49
2016-05-16T04:43:08.252Z,1012.5
2016-05-16T04:44:08.285Z,1012.49
2016-05-16T04:45:08.335Z,1012.48
2016-05-16T04:46:08.384Z,1012.46
2016-05-16T04:47:08.434Z,1012.47
2016-05-16T04:48:08.483Z,1012.48
2016-05-16T04:49:08.533Z,1012.48
2016-05-16T04:50:08.848Z,1012.46
2016-05-16T04:51:08.632Z,1012.48
2016-05-16T04:52:08.697Z,1012.5
2016-05-16T04:53:08.747Z,1012.48
2016-05-16T04:54:08.796Z,1012.47
2016-05-16T04:55:08.846Z,1012.44
2016-05-16T04:56:08.895Z,1012.47
2016-05-16T04:57:08.945Z,1012.49
2016-05-16T04:58:08.979Z,1012.46
2016-05-16T04:59:09.044Z,1012.49
2016-05-16T05:00:09.078Z,1012.45
2016-05-16T05:01:09.128Z,1012.48
2016-05-16T05:02:09.178Z,1012.49
2016-05-16T05:03:09.227Z,1012.47
2016-05-16T05:04:09.276Z,1012.53
2016-05-16T05:05:09.325Z,1012.52
2016-05-16T05:06:09.391Z,1012.5
2016-05-16T05:07:09.425Z,1012.52
2016-05-16T05:08:09.491Z,1012.54
2016-05-16T05:09:09.524Z,1012.5
2016-05-16T05:10:09.589Z,1012.53
2016-05-16T05:11:09.639Z,1012.52
2016-05-16T05:12:09.688Z,1012.5
2016-05-16T05:13:09.738Z,1012.51
2016-05-16T05:14:09.772Z,1012.48
2016-05-16T05:15:09.838Z,1012.51
2016-05-16T05:16:09.872Z,1012.5
2016-05-16T05:17:09.936Z,1012.47
2016-05-16T05:18:09.985Z,1012.5
2016-05-16T05:19:10.020Z,1012.46
2016-05-16T05:20:10.335Z,1012.46
2016-05-16T05:21:10.119Z,1012.48
2016-05-16T05:22:10.184Z,1012.45
2016-05-16T05:23:10.218Z,1012.46
2016-05-16T05:24:10.298Z,1012.46
2016-05-16T05:25:10.333Z,1012.47
2016-05-16T05:26:10.382Z,1012.41
2016-05-16T05:27:10.432Z,1012.42
2016-05-16T05:28:10.481Z,1012.42
2016-05-16T05:29:10.531Z,1012.38
2016-05-16T05:30:10.565Z,1012.42
2016-05-16T05:31:10.630Z,1012.41
2016-05-16T05:32:10.664Z,1012.42
2016-05-16T05:33:10.729Z,1012.41
2016-05-16T05:34:10.779Z,1012.42
2016-05-16T05:35:11.032Z,1012.38
2016-05-16T05:36:10.878Z,1012.39
2016-05-16T05:37:10.927Z,1012.43
2016-05-16T05:38:10.962Z,1012.41
2016-05-16T05:39:11.027Z,1012.41
2016-05-16T05:40:11.061Z,1012.41
2016-05-16T05:41:11.110Z,1012.4
2016-05-16T05:42:11.160Z,1012.37
2016-05-16T05:43:11.224Z,1012.42
2016-05-16T05:44:11.259Z,1012.44
2016-05-16T05:45:11.324Z,1012.41
2016-05-16T05:46:11.374Z,1012.41
2016-05-16T05:47:11.407Z,1012.41
2016-05-16T05:48:11.474Z,1012.42
2016-05-16T05:49:11.521Z,1012.38
2016-05-16T05:50:11.557Z,1012.42
2016-05-16T05:51:11.621Z,1012.37
2016-05-16T05:52:11.671Z,1012.38
2016-05-16T05:53:11.720Z,1012.4
2016-05-16T05:54:11.755Z,1012.38
2016-05-16T05:55:11.820Z,1012.36
2016-05-16T05:56:11.870Z,1012.41
2016-05-16T05:57:11.919Z,1012.4
2016-05-16T05:58:11.968Z,1012.42
2016-05-16T05:59:12.018Z,1012.4
2016-05-16T06:00:12.051Z,1012.45
2016-05-16T06:01:12.117Z,1012.44
2016-05-16T06:02:12.167Z,1012.42
2016-05-16T06:03:12.201Z,1012.44
2016-05-16T06:04:12.250Z,1012.45
2016-05-16T06:05:12.300Z,1012.46
2016-05-16T06:06:12.350Z,1012.48
2016-05-16T06:07:12.399Z,1012.5
2016-05-16T06:08:12.448Z,1012.43
2016-05-16T06:09:12.498Z,1012.45
2016-05-16T06:10:12.563Z,1012.47
2016-05-16T06:11:12.597Z,1012.48
2016-05-16T06:12:12.662Z,1012.49
2016-05-16T06:13:12.697Z,1012.5
2016-05-16T06:14:12.761Z,1012.53
2016-05-16T06:15:12.811Z,1012.53
2016-05-16T06:16:12.860Z,1012.54
2016-05-16T06:17:12.910Z,1012.57
2016-05-16T06:18:12.959Z,1012.58
2016-05-16T06:19:13.009Z,1012.54
2016-05-16T06:20:13.044Z,1012.57
2016-05-16T06:21:13.093Z,1012.57
2016-05-16T06:22:13.143Z,1012.54
2016-05-16T06:23:13.192Z,1012.5
2016-05-16T06:24:13.257Z,1012.54
2016-05-16T06:25:13.307Z,1012.58
2016-05-16T06:26:13.340Z,1012.55
2016-05-16T06:27:13.406Z,1012.6
2016-05-16T06:28:13.442Z,1012.6
2016-05-16T06:29:13.507Z,1012.61
2016-05-16T06:30:13.557Z,1012.64
2016-05-16T06:31:13.591Z,1012.64
2016-05-16T06:32:13.641Z,1012.64
2016-05-16T06:33:13.705Z,1012.6
2016-05-16T06:34:13.756Z,1012.64
2016-05-16T06:35:13.790Z,1012.62
2016-05-16T06:36:13.855Z,1012.58
2016-05-16T06:37:13.904Z,1012.54
2016-05-16T06:38:13.953Z,1012.57
2016-05-16T06:39:13.988Z,1012.61
2016-05-16T06:40:14.037Z,1012.58
2016-05-16T06:41:14.103Z,1012.57
2016-05-16T06:42:14.136Z,1012.57
2016-05-16T06:43:14.186Z,1012.6
2016-05-16T06:44:14.235Z,1012.58
2016-05-16T06:45:14.285Z,1012.6
2016-05-16T06:46:14.335Z,1012.59
2016-05-16T06:47:14.385Z,1012.63
2016-05-16T06:48:14.434Z,1012.65
2016-05-16T06:49:14.499Z,1012.6
2016-05-16T06:50:14.549Z,1012.61
2016-05-16T06:51:14.583Z,1012.61
2016-05-16T06:52:14.632Z,1012.63
2016-05-16T06:53:14.682Z,1012.61
2016-05-16T06:54:14.731Z,1012.6
2016-05-16T06:55:14.781Z,1012.63
2016-05-16T06:56:14.830Z,1012.66
2016-05-16T06:57:14.880Z,1012.68
2016-05-16T06:58:14.929Z,1012.69
2016-05-16T06:59:14.979Z,1012.67
2016-05-16T07:00:15.044Z,1012.69
2016-05-16T07:01:15.109Z,1012.69
2016-05-16T07:02:15.175Z,1012.74
2016-05-16T07:03:15.192Z,1012.77
2016-05-16T07:04:15.259Z,1012.77
2016-05-16T07:05:15.448Z,1012.77
2016-05-16T07:06:15.325Z,1012.77
2016-05-16T07:07:15.392Z,1012.78
2016-05-16T07:08:15.425Z,1012.74
2016-05-16T07:09:15.475Z,1012.77
2016-05-16T07:10:15.524Z,1012.77
2016-05-16T07:11:15.589Z,1012.81
2016-05-16T07:12:15.623Z,1012.82
2016-05-16T07:13:15.673Z,1012.8
2016-05-16T07:14:15.738Z,1012.82
2016-05-16T07:15:15.788Z,1012.77
2016-05-16T07:16:15.822Z,1012.81
2016-05-16T07:17:15.871Z,1012.77
2016-05-16T07:18:15.936Z,1012.76
2016-05-16T07:19:15.970Z,1012.73
2016-05-16T07:20:16.348Z,1012.73
2016-05-16T07:21:16.085Z,1012.8
2016-05-16T07:22:16.119Z,1012.78
2016-05-16T07:23:16.169Z,1012.79
2016-05-16T07:24:16.234Z,1012.8
2016-05-16T07:25:16.283Z,1012.82
2016-05-16T07:26:16.317Z,1012.83
2016-05-16T07:27:16.382Z,1012.8
2016-05-16T07:28:16.432Z,1012.85
2016-05-16T07:29:16.481Z,1012.82
2016-05-16T07:30:16.516Z,1012.8
2016-05-16T07:31:16.581Z,1012.79
2016-05-16T07:32:16.614Z,1012.8
2016-05-16T07:33:16.664Z,1012.86
2016-05-16T07:34:16.714Z,1012.82
2016-05-16T07:35:16.764Z,1012.84
2016-05-16T07:36:16.828Z,1012.87
2016-05-16T07:37:16.862Z,1012.85
2016-05-16T07:38:16.928Z,1012.84
2016-05-16T07:39:16.978Z,1012.85
2016-05-16T07:40:17.028Z,1012.81
2016-05-16T07:41:17.075Z,1012.88
2016-05-16T07:42:17.126Z,1012.9
2016-05-16T07:43:17.160Z,1012.88
2016-05-16T07:44:17.209Z,1012.88
2016-05-16T07:45:17.258Z,1012.86
2016-05-16T07:46:17.308Z,1012.87
2016-05-16T07:47:17.357Z,1012.84
2016-05-16T07:48:17.407Z,1012.85
2016-05-16T07:49:17.458Z,1012.87
2016-05-16T07:50:17.522Z,1012.85
2016-05-16T07:51:17.557Z,1012.83
2016-05-16T07:52:17.621Z,1012.79
2016-05-16T07:53:17.671Z,1012.85
2016-05-16T07:54:17.705Z,1012.84
2016-05-16T07:55:17.770Z,1012.79
2016-05-16T07:56:17.804Z,1012.8
2016-05-16T07:57:17.853Z,1012.8
2016-05-16T07:58:17.904Z,1012.82
2016-05-16T07:59:17.954Z,1012.82
2016-05-16T08:00:18.002Z,1012.81
2016-05-16T08:01:18.052Z,1012.83
2016-05-16T08:02:18.117Z,1012.82
2016-05-16T08:03:18.151Z,1012.79
2016-05-16T08:04:18.200Z,1012.81
2016-05-16T08:05:18.250Z,1012.81
2016-05-16T08:06:18.315Z,1012.79
2016-05-16T08:07:18.350Z,1012.8
2016-05-16T08:08:18.398Z,1012.73
2016-05-16T08:09:18.464Z,1012.82
2016-05-16T08:10:18.514Z,1012.82
2016-05-16T08:11:18.547Z,1012.74
2016-05-16T08:12:18.597Z,1012.73
2016-05-16T08:13:18.661Z,1012.73
2016-05-16T08:14:18.697Z,1012.77
2016-05-16T08:15:18.747Z,1012.72
2016-05-16T08:16:18.795Z,1012.69
2016-05-16T08:17:18.845Z,1012.69
2016-05-16T08:18:18.894Z,1012.74
2016-05-16T08:19:18.960Z,1012.7
2016-05-16T08:20:19.572Z,1012.68
2016-05-16T08:21:19.043Z,1012.71
2016-05-16T08:22:19.093Z,1012.71
2016-05-16T08:23:19.143Z,1012.73
2016-05-16T08:24:19.192Z,1012.74
2016-05-16T08:25:19.241Z,1012.77
2016-05-16T08:26:19.291Z,1012.75
2016-05-16T08:27:19.340Z,1012.74
2016-05-16T08:28:19.406Z,1012.75
2016-05-16T08:29:19.439Z,1012.72
2016-05-16T08:30:19.489Z,1012.76
2016-05-16T08:31:19.555Z,1012.76
2016-05-16T08:32:19.588Z,1012.79
2016-05-16T08:33:19.638Z,1012.75
2016-05-16T08:34:19.687Z,1012.75
2016-05-16T08:35:20.050Z,1012.73
2016-05-16T08:36:19.787Z,1012.74
2016-05-16T08:37:19.836Z,1012.8
2016-05-16T08:38:19.886Z,1012.78
2016-05-16T08:39:19.936Z,1012.8
2016-05-16T08:40:19.984Z,1012.82
2016-05-16T08:41:20.034Z,1012.86
2016-05-16T08:42:20.084Z,1012.79
2016-05-16T08:43:20.133Z,1012.81
2016-05-16T08:44:20.184Z,1012.84
2016-05-16T08:45:20.232Z,1012.82
2016-05-16T08:46:20.282Z,1012.87
2016-05-16T08:47:20.333Z,1012.88
2016-05-16T08:48:20.381Z,1012.85
2016-05-16T08:49:20.431Z,1012.82
2016-05-16T08:50:20.480Z,1012.8
2016-05-16T08:51:20.530Z,1012.81
2016-05-16T08:52:20.580Z,1012.8
2016-05-16T08:53:20.629Z,1012.83
2016-05-16T08:54:20.694Z,1012.84
2016-05-16T08:55:20.729Z,1012.77
2016-05-16T08:56:20.778Z,1012.79
2016-05-16T08:57:20.827Z,1012.82
2016-05-16T08:58:20.893Z,1012.74
2016-05-16T08:59:20.926Z,1012.74
2016-05-16T09:00:20.976Z,1012.71
2016-05-16T09:01:21.025Z,1012.76
2016-05-16T09:02:21.075Z,1012.71
2016-05-16T09:03:21.126Z,1012.7
2016-05-16T09:04:21.174Z,1012.69
2016-05-16T09:05:21.224Z,1012.67
2016-05-16T09:06:21.273Z,1012.65
2016-05-16T09:07:21.323Z,1012.63
2016-05-16T09:08:21.389Z,1012.62
2016-05-16T09:09:21.422Z,1012.6
2016-05-16T09:10:21.472Z,1012.59
2016-05-16T09:11:21.522Z,1012.6
2016-05-16T09:12:21.571Z,1012.58
2016-05-16T09:13:21.620Z,1012.57
2016-05-16T09:14:21.670Z,1012.58
2016-05-16T09:15:21.719Z,1012.6
2016-05-16T09:16:21.769Z,1012.61
2016-05-16T09:17:21.818Z,1012.57
2016-05-16T09:18:21.868Z,1012.55
2016-05-16T09:19:21.919Z,1012.55
2016-05-16T09:20:21.967Z,1012.56
2016-05-16T09:21:22.017Z,1012.6
2016-05-16T09:22:22.082Z,1012.58
2016-05-16T09:23:22.116Z,1012.58
2016-05-16T09:24:22.166Z,1012.57
2016-05-16T09:25:22.216Z,1012.61
2016-05-16T09:26:22.265Z,1012.54
2016-05-16T09:27:22.315Z,1012.61
2016-05-16T09:28:22.364Z,1012.6
2016-05-16T09:29:22.413Z,1012.61
2016-05-16T09:30:22.479Z,1012.61
2016-05-16T09:31:22.512Z,1012.6
2016-05-16T09:32:22.562Z,1012.6
2016-05-16T09:33:22.612Z,1012.62
2016-05-16T09:34:22.677Z,1012.64
2016-05-16T09:35:22.727Z,1012.65
2016-05-16T09:36:22.760Z,1012.66
2016-05-16T09:37:22.826Z,1012.65
2016-05-16T09:38:22.859Z,1012.64
2016-05-16T09:39:22.909Z,1012.68
2016-05-16T09:40:22.959Z,1012.67
2016-05-16T09:41:23.008Z,1012.67
2016-05-16T09:42:23.058Z,1012.63
2016-05-16T09:43:23.108Z,1012.64
2016-05-16T09:44:23.157Z,1012.66
2016-05-16T09:45:23.206Z,1012.61
2016-05-16T09:46:23.272Z,1012.6
2016-05-16T09:47:23.305Z,1012.58
2016-05-16T09:48:23.355Z,1012.64
2016-05-16T09:49:23.405Z,1012.63
2016-05-16T09:50:23.454Z,1012.63
2016-05-16T09:51:23.505Z,1012.6
2016-05-16T09:52:23.569Z,1012.62
2016-05-16T09:53:23.603Z,1012.58
2016-05-16T09:54:23.652Z,1012.54
2016-05-16T09:55:23.765Z,1012.51
2016-05-16T09:56:23.752Z,1012.53
2016-05-16T09:57:23.802Z,1012.5
2016-05-16T09:58:23.852Z,1012.49
2016-05-16T09:59:23.901Z,1012.47
2016-05-16T10:00:23.950Z,1012.56
2016-05-16T10:01:23.999Z,1012.55
2016-05-16T10:02:24.049Z,1012.49
2016-05-16T10:03:24.114Z,1012.51
2016-05-16T10:04:24.148Z,1012.49
2016-05-16T10:05:24.198Z,1012.47
2016-05-16T10:06:24.248Z,1012.47
2016-05-16T10:07:24.298Z,1012.45
2016-05-16T10:08:24.346Z,1012.45
2016-05-16T10:09:24.396Z,1012.46
2016-05-16T10:10:24.445Z,1012.48
2016-05-16T10:11:24.495Z,1012.44
2016-05-16T10:12:24.561Z,1012.45
2016-05-16T10:13:24.939Z,1012.45
2016-05-16T10:14:24.645Z,1012.45
2016-05-16T10:15:24.694Z,1012.38
2016-05-16T10:16:24.743Z,1012.39
2016-05-16T10:17:24.808Z,1012.4
2016-05-16T10:18:24.842Z,1012.37
2016-05-16T10:19:24.891Z,1012.36
2016-05-16T10:20:24.958Z,1012.39
2016-05-16T10:21:24.991Z,1012.41
2016-05-16T10:22:25.041Z,1012.4
2016-05-16T10:23:25.091Z,1012.38
2016-05-16T10:24:25.155Z,1012.42
2016-05-16T10:25:25.189Z,1012.41
2016-05-16T10:26:25.238Z,1012.44
2016-05-16T10:27:25.288Z,1012.47
2016-05-16T10:28:25.338Z,1012.52
2016-05-16T10:29:25.388Z,1012.48
2016-05-16T10:30:25.438Z,1012.49
2016-05-16T10:31:25.487Z,1012.45
2016-05-16T10:32:25.536Z,1012.47
2016-05-16T10:33:25.585Z,1012.46
2016-05-16T10:34:25.651Z,1012.49
2016-05-16T10:35:26.215Z,1012.49
2016-05-16T10:36:25.751Z,1012.49
2016-05-16T10:37:25.799Z,1012.49
2016-05-16T10:38:25.848Z,1012.48
2016-05-16T10:39:25.899Z,1012.49
2016-05-16T10:40:25.949Z,1012.5
2016-05-16T10:41:25.982Z,1012.47
2016-05-16T10:42:26.048Z,1012.45
2016-05-16T10:43:26.097Z,1012.42
2016-05-16T10:44:26.147Z,1012.44
2016-05-16T10:45:26.195Z,1012.42
2016-05-16T10:46:26.245Z,1012.42
2016-05-16T10:47:26.295Z,1012.4
2016-05-16T10:48:26.329Z,1012.42
2016-05-16T10:49:26.410Z,1012.38
2016-05-16T10:50:26.428Z,1012.37
2016-05-16T10:51:26.477Z,1012.39
2016-05-16T10:52:26.528Z,1012.38
2016-05-16T10:53:26.592Z,1012.37
2016-05-16T10:54:26.627Z,1012.43
2016-05-16T10:55:26.677Z,1012.43
2016-05-16T10:56:26.725Z,1012.4
2016-05-16T10:57:26.831Z,1012.42
2016-05-16T10:58:26.912Z,1012.46
2016-05-16T10:59:27.008Z,1012.42
2016-05-16T11:00:27.121Z,1012.41
2016-05-16T11:01:27.201Z,1012.39
2016-05-16T11:02:27.272Z,1012.4
2016-05-16T11:03:27.354Z,1012.38
2016-05-16T11:04:27.420Z,1012.4
2016-05-16T11:05:27.487Z,1012.35
2016-05-16T11:06:28.241Z,1012.39
2016-05-16T11:07:27.594Z,1012.45
2016-05-16T11:08:27.666Z,1012.38
2016-05-16T11:09:27.720Z,1012.35
2016-05-16T11:10:27.776Z,1012.38
2016-05-16T11:11:27.817Z,1012.37
2016-05-16T11:12:27.868Z,1012.45
2016-05-16T11:13:27.935Z,1012.4
2016-05-16T11:14:27.972Z,1012.44
2016-05-16T11:15:28.039Z,1012.42
2016-05-16T11:16:28.076Z,1012.43
2016-05-16T11:17:28.126Z,1012.43
2016-05-16T11:18:28.176Z,1012.46
2016-05-16T11:19:28.228Z,1012.4
2016-05-16T11:20:28.276Z,1012.4
2016-05-16T11:21:28.327Z,1012.44
2016-05-16T11:22:28.378Z,1012.48
2016-05-16T11:23:28.443Z,1012.53
2016-05-16T11:24:28.681Z,1012.37
2016-05-16T11:25:28.527Z,1012.49
2016-05-16T11:26:28.592Z,1012.48
2016-05-16T11:27:28.642Z,1012.48
2016-05-16T11:28:28.692Z,1012.45
2016-05-16T11:29:28.725Z,1012.42
2016-05-16T11:30:28.792Z,1012.4
2016-05-16T11:31:28.841Z,1012.41
2016-05-16T11:32:28.891Z,1012.39
2016-05-16T11:33:28.940Z,1012.36
2016-05-16T11:34:28.989Z,1012.32
2016-05-16T11:35:29.039Z,1012.32
2016-05-16T11:36:29.088Z,1012.31
2016-05-16T11:37:29.138Z,1012.28
2016-05-16T11:38:29.188Z,1012.25
2016-05-16T11:39:29.238Z,1012.25
2016-05-16T11:40:29.271Z,1012.28
2016-05-16T11:41:29.336Z,1012.18
2016-05-16T11:42:29.401Z,1012.28
2016-05-16T11:43:29.420Z,1012.27
2016-05-16T11:44:29.469Z,1012.28
2016-05-16T11:45:29.534Z,1012.22
2016-05-16T11:46:29.585Z,1012.18
2016-05-16T11:47:29.618Z,1012.21
2016-05-16T11:48:29.668Z,1012.21
2016-05-16T11:49:29.733Z,1012.22
2016-05-16T11:50:29.782Z,1012.21
2016-05-16T11:51:30.176Z,1012.2
2016-05-16T11:52:29.881Z,1012.2
2016-05-16T11:53:29.931Z,1012.19
2016-05-16T11:54:29.965Z,1012.2
2016-05-16T11:55:30.031Z,1012.2
2016-05-16T11:56:30.080Z,1012.18
2016-05-16T11:57:30.129Z,1012.24
2016-05-16T11:58:30.163Z,1012.22
2016-05-16T11:59:30.214Z,1012.2
2016-05-16T12:00:30.262Z,1012.21
2016-05-16T12:01:30.312Z,1012.24
2016-05-16T12:02:30.362Z,1012.24
2016-05-16T12:03:30.411Z,1012.23
2016-05-16T12:04:30.477Z,1012.22
2016-05-16T12:05:30.713Z,1012.2
2016-05-16T12:06:30.560Z,1012.21
2016-05-16T12:07:30.625Z,1012.23
2016-05-16T12:08:30.659Z,1012.18
2016-05-16T12:09:30.724Z,1012.19
2016-05-16T12:10:30.758Z,1012.19